Airfield :
LOGIN :

Register | Disclaimer

   EN    FR    IT 

 










Legend :    VFR   Marginal VFR   IFR   Intensive IFR   Very Intensive IFR
Visi :
Ceiling :
>= 8 km
>= 3000ft
5 to 8 km
1000 to 3000 ft
1500m to 5 km
500 to 1000 ft
800 to 1500m
200 to 500 ft
< 800m
< 200 ft
Symbols :   Thunderstorms  Fog  Heavy snow  Heavy precipitations  Wind > 20 kt
SIGMETs :     Misc.  Thunderstorms  Icing  Turbulence  Mountain Waves  Volcanic Ashes






- Airport Elevation : 404 ft
- IATA code : ECN


LCEN - Ercan International

CURRENT METAR :
  • 071020Z 33003KT CAVOK 38/03 Q1008 NOSIG RMK RWY11 13006KT

EXPIRED METARs :
  • 070950Z 25004KT CAVOK 37/04 Q1008 NOSIG RMK RWY11 13005KT
  • 070920Z 11006KT 360V170 CAVOK 37/03 Q1008 NOSIG RMK RWY11 35004KT
  • 070850Z 12005KT CAVOK 36/03 Q1008 NOSIG RMK RWY11 12004KT
  • 070820Z 09005KT CAVOK 35/03 Q1009 NOSIG RMK RWY11 15005KT
  • 070750Z 15004KT CAVOK 35/03 Q1009 NOSIG RMK RWY11 15004KT

TAF TAF LCEN
Valid from the 07 at 06:00 until the 08 at 06:00 UTC


0706/0806 29012KT CAVOK



MET'MAP, your aeronautical weather chart ! - Copyright ORBIFLY December 2007 - Disclaimer

ORBIFLY MET'MAP TEAM :

Programming & Development : Alexandra Zaïnal
Concept & original design : Baudouin d'Aumeries
Assistance for programming : Marc-Olivier Méhu
Technical & hardware support : Manuel Goepfert

Contact : metmap@orbifly.com




SOURCES & CREDITS :

   NOAA